Apex, NC (27502)

4:43 AM EDT on July 28, 2016 (GMT -0400)
Surrey Meadows | | Change Station
Active Advisory: Heat Advisory

Elev 476 ft 35.73 °N, 78.83 °W | Updated 14 minutes ago

Clear
Clear
75.2 °F
Feels Like 74 °F
N
0.0
Wind Variable Wind from NNW

Today
High -- | Low -- °F
--% Chance of Precip.
Yesterday
High -- | Low -- °F
Precip. -- in
Pressure 29.92 in
Visibility 8.0 miles
Clouds Clear
Heat Index 74 °F
Dew Point 73 °F
Humidity 93%
Rainfall 0.00 in
Snow Depth Not available.
6:20 AM 8:22 PM
Waning Crescent, 34% visible
METAR KRDU 280751Z 00000KT 8SM CLR 24/22 A2993 RMK AO2 SLP130 T02390222 $
Pressure 29.92 in
Visibility 8.0 miles
Clouds Clear
Heat Index 74 °F
Dew Point 73 °F
Humidity 93%
Rainfall 0.00 in
Snow Depth Not available.
6:20 AM 8:22 PM
Waning Crescent, 34% visible
METAR KRDU 280751Z 00000KT 8SM CLR 24/22 A2993 RMK AO2 SLP130 T02390222 $

10-Day Weather Forecast

Almanac

Astronomy

Jul. 28, 2016 Rise Set
Actual Time
Civil Twilight
Nautical Twilight
Astronomical Twilight
Moon
Length of Visible Light
Length of Day
Tomorrow will be .
, % of the Moon is Illuminated

Today's Extremes

State Highs State Lows

Community

WunderPhotos

Upload Photos

1,928,070 photos uploaded!

WunderBlog® & News

Nearby

Air Quality

  Air Quality AQ Index Pollutant
Not available.

Snow Depth

Station Depth Elevation

Earthquake Activity

City Distance Mag. Time & Date
Minimum magnitude displayed is 2.5.

Coastal Water Temperatures

Place Temperature

Stations

Nearby Weather Stations

Station Location Temp. Windchill Dew Point Humidity Wind Precip. Elev Updated Type
                   

Watches & Warnings

Heat Advisory
Issued: 3:27 AM EDT Jul. 28, 2016 – National Weather Service

... Heat advisory in effect from noon today to 8 PM EDT this
evening...

* temperatures... highs will reach 96 to 100.

* Heat indices... 105 to 109 degrees.

* Impacts... the accumulative effects of the heat and humidity
will lead to an increased risk of heat related illnesses...
especially among vulnerable individuals such as the sick...
the elderly... those exerting themselves outdoors... and those
without air conditioning.

Precautionary/preparedness actions...

A heat advisory means that hot temperatures and high humidity
will create a situation in which heat illnesses are likely unless
precautions are taken. Limit time outdoors... especially this
afternoon. Wear loose fitting and light colored clothing. Take
frequent breaks in the shade... in air conditioning... or near a
fan. Drink plenty of water.



Pwb